MAHA862 WMKL-WMKL
Flight info
| Callsign | MAHA862 |
|---|---|
| Flight time | 0h 17m |
| Altitude | 5000 |
| Route | DCT VPL VPL1E |
| Aircraft | DA40/L-SBDGRY/S |
Departure
| Time | 2026-04-27 10:45 |
|---|---|
| Airport | Langkawi International Airport (WMKL) |
Arrival
| Time | 2026-04-27 11:02 |
|---|---|
| Airport | Langkawi International Airport (WMKL) |
| Time | Latitude | Longitude | Altitude | Speed | Heading |
|---|---|---|---|---|---|
| 2026-04-27 10:42 | 6.33782 | 99.73302 | 31 ft | 0 kts | 124° |
| 2026-04-27 10:42 | 6.33778 | 99.73309 | 31 ft | 6 kts | 123° |
| 2026-04-27 10:42 | 6.33699 | 99.73356 | 31 ft | 19 kts | 203° |
| 2026-04-27 10:43 | 6.33606 | 99.73279 | 31 ft | 10 kts | 221° |
| 2026-04-27 10:43 | 6.33588 | 99.73279 | 31 ft | 3 kts | 109° |
| 2026-04-27 10:43 | 6.33601 | 99.73292 | 31 ft | 0 kts | 33° |
| 2026-04-27 10:43 | 6.33605 | 99.73295 | 31 ft | 5 kts | 32° |
| 2026-04-27 10:44 | 6.33776 | 99.73411 | 32 ft | 53 kts | 36° |
| 2026-04-27 10:44 | 6.34152 | 99.73702 | 106 ft | 74 kts | 44° |
| 2026-04-27 10:44 | 6.34540 | 99.74078 | 250 ft | 78 kts | 39° |
| 2026-04-27 10:44 | 6.34939 | 99.74411 | 377 ft | 77 kts | 34° |
| 2026-04-27 10:45 | 6.35367 | 99.74749 | 517 ft | 78 kts | 32° |
| 2026-04-27 10:45 | 6.35839 | 99.75071 | 661 ft | 85 kts | 33° |
| 2026-04-27 10:45 | 6.36330 | 99.75461 | 759 ft | 93 kts | 41° |
| 2026-04-27 10:45 | 6.36858 | 99.75898 | 871 ft | 102 kts | 36° |
| 2026-04-27 10:46 | 6.37434 | 99.76337 | 1062 ft | 103 kts | 35° |
| 2026-04-27 10:46 | 6.38024 | 99.76716 | 1304 ft | 100 kts | 29° |
| 2026-04-27 10:46 | 6.38621 | 99.77040 | 1560 ft | 96 kts | 30° |
| 2026-04-27 10:46 | 6.39203 | 99.77389 | 1746 ft | 96 kts | 30° |
| 2026-04-27 10:47 | 6.39791 | 99.77688 | 1958 ft | 95 kts | 23° |
| 2026-04-27 10:47 | 6.40403 | 99.77922 | 2157 ft | 93 kts | 22° |
| 2026-04-27 10:47 | 6.40997 | 99.78181 | 2351 ft | 92 kts | 27° |
| 2026-04-27 10:47 | 6.41577 | 99.78464 | 2507 ft | 92 kts | 28° |
| 2026-04-27 10:48 | 6.42166 | 99.78733 | 2647 ft | 93 kts | 27° |
| 2026-04-27 10:48 | 6.42753 | 99.78989 | 2759 ft | 96 kts | 25° |
| 2026-04-27 10:48 | 6.43177 | 99.79160 | 2794 ft | 99 kts | 26° |
| 2026-04-27 10:48 | 6.43821 | 99.79440 | 2823 ft | 102 kts | 27° |
| 2026-04-27 10:49 | 6.44449 | 99.79713 | 2857 ft | 105 kts | 26° |
| 2026-04-27 10:49 | 6.44817 | 99.79867 | 2913 ft | 103 kts | 25° |
| 2026-04-27 10:49 | 6.45477 | 99.80115 | 2963 ft | 106 kts | 24° |
| 2026-04-27 10:50 | 6.46078 | 99.80539 | 2984 ft | 106 kts | 43° |
| 2026-04-27 10:50 | 6.46460 | 99.80859 | 2990 ft | 109 kts | 41° |
| 2026-04-27 10:50 | 6.47062 | 99.81339 | 2999 ft | 111 kts | 40° |
| 2026-04-27 10:50 | 6.47672 | 99.81849 | 2992 ft | 114 kts | 43° |
| 2026-04-27 10:51 | 6.48225 | 99.82352 | 3128 ft | 103 kts | 40° |
| 2026-04-27 10:51 | 6.48600 | 99.82988 | 3039 ft | 112 kts | 83° |
| 2026-04-27 10:51 | 6.48333 | 99.83690 | 3015 ft | 119 kts | 142° |
| 2026-04-27 10:51 | 6.47501 | 99.83922 | 2973 ft | 124 kts | 164° |
| 2026-04-27 10:52 | 6.46666 | 99.84097 | 2973 ft | 122 kts | 166° |
| 2026-04-27 10:52 | 6.45853 | 99.84285 | 2990 ft | 119 kts | 162° |
| 2026-04-27 10:52 | 6.45038 | 99.84434 | 2874 ft | 119 kts | 167° |
| 2026-04-27 10:52 | 6.44212 | 99.84300 | 2817 ft | 125 kts | 193° |
| 2026-04-27 10:53 | 6.43379 | 99.84046 | 2857 ft | 125 kts | 194° |
| 2026-04-27 10:53 | 6.41826 | 99.83246 | 2767 ft | 134 kts | 246° |
| 2026-04-27 10:53 | 6.41857 | 99.82331 | 2734 ft | 134 kts | 286° |
| 2026-04-27 10:54 | 6.42132 | 99.81462 | 2783 ft | 128 kts | 290° |
| 2026-04-27 10:54 | 6.42321 | 99.80574 | 2771 ft | 130 kts | 281° |
| 2026-04-27 10:54 | 6.42474 | 99.79685 | 2746 ft | 130 kts | 281° |
| 2026-04-27 10:54 | 6.42650 | 99.78805 | 2775 ft | 127 kts | 283° |
| 2026-04-27 10:55 | 6.42848 | 99.77937 | 2727 ft | 130 kts | 285° |
| 2026-04-27 10:55 | 6.43073 | 99.77060 | 2730 ft | 128 kts | 277° |
| 2026-04-27 10:55 | 6.42761 | 99.76302 | 2782 ft | 120 kts | 205° |
| 2026-04-27 10:55 | 6.42026 | 99.76554 | 2626 ft | 122 kts | 124° |
| 2026-04-27 10:56 | 6.41541 | 99.77241 | 2632 ft | 120 kts | 125° |
| 2026-04-27 10:56 | 6.40932 | 99.77806 | 2663 ft | 125 kts | 159° |
| 2026-04-27 10:56 | 6.40149 | 99.77520 | 2573 ft | 134 kts | 223° |
| 2026-04-27 10:56 | 6.39494 | 99.76864 | 2570 ft | 133 kts | 223° |
| 2026-04-27 10:57 | 6.38788 | 99.76242 | 2532 ft | 132 kts | 213° |
| 2026-04-27 10:57 | 6.38010 | 99.75758 | 2496 ft | 131 kts | 199° |
| 2026-04-27 10:57 | 6.37132 | 99.75546 | 2462 ft | 130 kts | 195° |
| 2026-04-27 10:57 | 6.36406 | 99.75025 | 2430 ft | 129 kts | 216° |
| 2026-04-27 10:58 | 6.35669 | 99.74496 | 2351 ft | 131 kts | 213° |
| 2026-04-27 10:58 | 6.34933 | 99.73967 | 2320 ft | 128 kts | 214° |
| 2026-04-27 10:58 | 6.34229 | 99.73472 | 2250 ft | 113 kts | 203° |
| 2026-04-27 10:58 | 6.33521 | 99.73308 | 2135 ft | 100 kts | 184° |
| 2026-04-27 10:59 | 6.32854 | 99.73246 | 1999 ft | 95 kts | 184° |
| 2026-04-27 10:59 | 6.32218 | 99.73141 | 1825 ft | 93 kts | 195° |
| 2026-04-27 10:59 | 6.31626 | 99.72865 | 1635 ft | 94 kts | 212° |
| 2026-04-27 11:00 | 6.30602 | 99.72106 | 1235 ft | 92 kts | 215° |
| 2026-04-27 11:00 | 6.30114 | 99.71706 | 1056 ft | 87 kts | 221° |
| 2026-04-27 11:00 | 6.29855 | 99.71225 | 967 ft | 82 kts | 278° |
| 2026-04-27 11:00 | 6.30326 | 99.70959 | 829 ft | 89 kts | 22° |
| 2026-04-27 11:01 | 6.30846 | 99.71341 | 602 ft | 96 kts | 39° |
| 2026-04-27 11:01 | 6.31351 | 99.71744 | 490 ft | 91 kts | 34° |
| 2026-04-27 11:01 | 6.31851 | 99.72103 | 311 ft | 84 kts | 32° |
| 2026-04-27 11:01 | 6.32322 | 99.72428 | 79 ft | 78 kts | 31° |
| 2026-04-27 11:02 | 6.32717 | 99.72687 | 29 ft | 56 kts | 24° |
| 2026-04-27 11:02 | 6.32978 | 99.72868 | 31 ft | 27 kts | 34° |
| 2026-04-27 11:02 | 6.33003 | 99.72886 | 31 ft | 0 kts | 32° |